createdAt,value
2016-09-25T00:00:00.389Z,65.53
2016-09-25T00:00:22.125Z,65.81
2016-09-25T00:00:48.633Z,66.04
2016-09-25T00:01:10.351Z,66.29
2016-09-25T00:01:32.089Z,66.34
2016-09-25T00:01:53.852Z,66.23
2016-09-25T00:02:15.612Z,65.97
2016-09-25T00:02:37.331Z,65.93
2016-09-25T00:02:59.062Z,66.20
2016-09-25T00:03:20.802Z,66.11
2016-09-25T00:03:43.541Z,66.34
2016-09-25T00:04:05.327Z,66.00
2016-09-25T00:04:27.040Z,65.52
2016-09-25T00:04:48.780Z,65.31
2016-09-25T00:05:10.507Z,64.78
2016-09-25T00:05:32.268Z,64.62
2016-09-25T00:05:54.012Z,64.30
2016-09-25T00:06:15.747Z,64.63
2016-09-25T00:06:37.600Z,64.81
2016-09-25T00:06:59.398Z,65.18
2016-09-25T00:07:21.120Z,65.73
2016-09-25T00:07:42.876Z,65.99
2016-09-25T00:08:04.608Z,66.14
2016-09-25T00:08:26.361Z,66.10
2016-09-25T00:08:48.092Z,66.25
2016-09-25T00:09:10.825Z,66.17
2016-09-25T00:09:32.544Z,65.96
2016-09-25T00:09:54.284Z,65.92
2016-09-25T00:10:16.022Z,65.70
2016-09-25T00:10:37.794Z,65.91
2016-09-25T00:10:59.507Z,65.78
2016-09-25T00:11:21.222Z,65.93
2016-09-25T00:11:42.952Z,66.06
2016-09-25T00:12:04.678Z,66.51
2016-09-25T00:12:26.413Z,66.17
2016-09-25T00:12:57.501Z,66.11
2016-09-25T00:13:19.279Z,66.17
2016-09-25T00:13:41.011Z,66.25
2016-09-25T00:14:02.729Z,65.87
2016-09-25T00:14:24.492Z,65.75
2016-09-25T00:15:12.755Z,66.39
2016-09-25T00:15:34.483Z,66.48
2016-09-25T00:15:56.220Z,66.50
2016-09-25T00:16:17.955Z,66.22
2016-09-25T00:16:39.712Z,66.21
2016-09-25T00:17:01.465Z,66.22
2016-09-25T00:17:23.206Z,66.31
2016-09-25T00:18:11.424Z,66.36
2016-09-25T00:18:33.212Z,66.44
2016-09-25T00:18:54.944Z,66.54
2016-09-25T00:19:16.666Z,66.80
2016-09-25T00:20:04.928Z,66.49
2016-09-25T00:20:26.694Z,66.29
2016-09-25T00:20:48.415Z,66.08
2016-09-25T00:21:10.134Z,66.13
2016-09-25T00:21:31.859Z,65.95
2016-09-25T00:22:02.953Z,66.22
2016-09-25T00:22:24.682Z,66.36
2016-09-25T00:22:46.409Z,66.39
2016-09-25T00:23:08.160Z,66.18
2016-09-25T00:23:29.897Z,65.97
2016-09-25T00:23:51.618Z,66.00
2016-09-25T00:24:13.338Z,66.08
2016-09-25T00:24:35.056Z,66.38
2016-09-25T00:24:56.797Z,66.53
2016-09-25T00:25:18.515Z,66.47
2016-09-25T00:25:42.243Z,66.36
2016-09-25T00:26:03.964Z,66.07
2016-09-25T00:26:30.477Z,65.79
2016-09-25T00:26:52.208Z,65.71
2016-09-25T00:27:13.935Z,65.48
2016-09-25T00:27:35.657Z,65.23
2016-09-25T00:27:57.379Z,65.45
2016-09-25T00:28:19.097Z,65.50
2016-09-25T00:28:40.835Z,66.01
2016-09-25T00:29:02.611Z,65.97
2016-09-25T00:29:24.338Z,65.89
2016-09-25T00:29:46.064Z,66.15
2016-09-25T00:30:07.788Z,66.27
2016-09-25T00:30:29.529Z,66.55
2016-09-25T00:30:51.260Z,66.78
2016-09-25T00:31:12.976Z,66.86
2016-09-25T00:31:34.700Z,66.55
2016-09-25T00:31:56.434Z,66.28
2016-09-25T00:32:18.166Z,66.11
2016-09-25T00:32:39.904Z,66.09
2016-09-25T00:33:01.622Z,65.84
2016-09-25T00:33:23.344Z,65.82
2016-09-25T00:33:45.071Z,66.25
2016-09-25T00:34:06.799Z,66.60
2016-09-25T00:34:28.527Z,66.85
2016-09-25T00:34:50.271Z,67.09
2016-09-25T00:35:19.733Z,67.04
2016-09-25T00:35:48.895Z,66.90
2016-09-25T00:36:15.203Z,66.96
2016-09-25T00:36:36.937Z,66.77
2016-09-25T00:36:58.658Z,66.61
2016-09-25T00:37:20.416Z,66.73
2016-09-25T00:37:42.166Z,66.29
2016-09-25T00:38:03.885Z,66.37
2016-09-25T00:38:25.619Z,66.25
2016-09-25T00:38:47.353Z,66.23
2016-09-25T00:39:09.119Z,66.10
2016-09-25T00:39:30.838Z,65.74
2016-09-25T00:39:52.643Z,65.63
2016-09-25T00:40:14.504Z,65.63
2016-09-25T00:40:36.252Z,65.70
2016-09-25T00:40:57.993Z,65.93
2016-09-25T00:41:19.758Z,66.33
2016-09-25T00:41:41.489Z,66.60
2016-09-25T00:42:03.222Z,66.64
2016-09-25T00:42:24.966Z,66.74
2016-09-25T00:42:46.694Z,66.76
2016-09-25T00:43:08.426Z,66.83
2016-09-25T00:43:30.160Z,66.82
2016-09-25T00:43:51.884Z,67.06
2016-09-25T00:44:13.607Z,67.06
2016-09-25T00:44:40.096Z,66.88
2016-09-25T00:45:01.837Z,66.99
2016-09-25T00:45:23.583Z,67.14
2016-09-25T00:45:45.311Z,67.11
2016-09-25T00:46:07.059Z,67.44
2016-09-25T00:46:28.832Z,67.38
2016-09-25T00:46:50.627Z,67.61
2016-09-25T00:47:12.361Z,68.01
2016-09-25T00:47:34.087Z,68.09
2016-09-25T00:47:55.823Z,67.70
2016-09-25T00:48:17.562Z,67.33
2016-09-25T00:48:39.288Z,67.03
2016-09-25T00:49:01.014Z,66.76
2016-09-25T00:49:22.796Z,67.26
2016-09-25T00:49:44.579Z,67.51
2016-09-25T00:50:06.361Z,67.49
2016-09-25T00:50:28.098Z,66.99
2016-09-25T00:50:49.820Z,67.14
2016-09-25T00:51:11.580Z,67.16
2016-09-25T00:51:33.312Z,66.98
2016-09-25T00:51:55.061Z,67.23
2016-09-25T00:52:16.796Z,67.13
2016-09-25T00:52:38.576Z,67.21
2016-09-25T00:53:00.310Z,67.27
2016-09-25T00:53:22.038Z,67.38
2016-09-25T00:53:43.772Z,67.50
2016-09-25T00:54:05.500Z,68.19
2016-09-25T00:54:27.263Z,67.79
2016-09-25T00:54:48.991Z,67.47
2016-09-25T00:55:10.725Z,67.55
2016-09-25T00:55:32.454Z,67.63
2016-09-25T00:55:54.188Z,67.67
2016-09-25T00:56:15.929Z,67.74
2016-09-25T00:56:37.794Z,67.70
2016-09-25T00:56:59.525Z,67.68
2016-09-25T00:57:21.270Z,67.99
2016-09-25T00:57:43.014Z,68.24
2016-09-25T00:58:04.742Z,68.15
2016-09-25T00:58:31.263Z,68.47
2016-09-25T00:58:53.992Z,68.81
2016-09-25T00:59:15.708Z,69.04
2016-09-25T00:59:37.461Z,69.04
2016-09-25T00:59:59.183Z,69.38
2016-09-25T01:00:20.911Z,69.45
2016-09-25T01:00:43.653Z,69.41
2016-09-25T01:01:05.388Z,69.65
2016-09-25T01:01:27.110Z,69.84
2016-09-25T01:01:48.837Z,69.85
2016-09-25T01:02:10.571Z,70.04
2016-09-25T01:02:32.355Z,70.27
2016-09-25T01:02:54.095Z,70.19
2016-09-25T01:03:15.833Z,69.58
2016-09-25T01:03:37.573Z,69.64
2016-09-25T01:04:04.117Z,69.20
2016-09-25T01:04:30.604Z,69.01
2016-09-25T01:04:52.352Z,68.99
2016-09-25T01:05:14.092Z,69.18
2016-09-25T01:05:35.845Z,69.56
2016-09-25T01:05:57.605Z,69.72
2016-09-25T01:06:46.849Z,69.81
2016-09-25T01:07:08.635Z,69.84
2016-09-25T01:07:30.367Z,69.75
2016-09-25T01:07:52.102Z,69.42
2016-09-25T01:08:13.820Z,69.54
2016-09-25T01:08:35.577Z,69.82
2016-09-25T01:09:03.077Z,69.74
2016-09-25T01:09:24.806Z,69.43
2016-09-25T01:09:46.549Z,69.30
2016-09-25T01:10:08.268Z,69.87
2016-09-25T01:10:30.001Z,69.74
2016-09-25T01:10:51.765Z,69.70
2016-09-25T01:11:13.502Z,69.42
2016-09-25T01:11:35.225Z,69.53
2016-09-25T01:11:56.975Z,69.58
2016-09-25T01:12:18.716Z,69.86
2016-09-25T01:12:40.452Z,70.32
2016-09-25T01:13:02.281Z,70.42
2016-09-25T01:13:24.017Z,70.23
2016-09-25T01:13:45.753Z,69.91
2016-09-25T01:14:07.476Z,69.72
2016-09-25T01:14:29.214Z,69.84
2016-09-25T01:14:50.933Z,69.96
2016-09-25T01:15:12.693Z,69.64
2016-09-25T01:15:34.430Z,69.93
2016-09-25T01:15:57.144Z,70.30
2016-09-25T01:16:18.879Z,70.65
2016-09-25T01:16:40.607Z,70.82
2016-09-25T01:17:02.325Z,70.79
2016-09-25T01:17:24.053Z,70.67
2016-09-25T01:17:45.806Z,70.63
2016-09-25T01:18:07.602Z,70.22
2016-09-25T01:18:30.332Z,70.04
2016-09-25T01:18:52.181Z,69.78
2016-09-25T01:19:13.922Z,69.37
2016-09-25T01:19:35.653Z,69.17
2016-09-25T01:19:57.439Z,69.28
2016-09-25T01:20:19.147Z,69.36
2016-09-25T01:20:40.888Z,69.86
2016-09-25T01:21:02.613Z,70.16
2016-09-25T01:21:24.360Z,69.80
2016-09-25T01:21:46.085Z,69.58
2016-09-25T01:22:07.804Z,69.57
2016-09-25T01:22:29.544Z,70.16
2016-09-25T01:22:51.317Z,71.15
2016-09-25T01:23:13.058Z,71.48
2016-09-25T01:23:34.818Z,71.99
2016-09-25T01:23:56.555Z,72.52
2016-09-25T01:24:18.293Z,73.02
2016-09-25T01:24:40.053Z,73.07
2016-09-25T01:25:01.774Z,73.22
2016-09-25T01:25:23.532Z,73.40
2016-09-25T01:25:45.224Z,73.72
2016-09-25T01:26:06.946Z,74.04
2016-09-25T01:26:28.684Z,74.04
2016-09-25T01:26:50.431Z,74.02
2016-09-25T01:27:12.152Z,73.21
2016-09-25T01:27:33.914Z,72.94
2016-09-25T01:27:55.627Z,72.20
2016-09-25T01:28:17.362Z,71.97
2016-09-25T01:28:41.893Z,72.32
2016-09-25T01:29:03.626Z,72.75
2016-09-25T01:29:25.500Z,72.71
2016-09-25T01:29:47.253Z,72.68
2016-09-25T01:30:08.968Z,72.43
2016-09-25T01:30:30.696Z,72.28
2016-09-25T01:30:52.433Z,72.15
2016-09-25T01:31:14.165Z,72.69
2016-09-25T01:31:35.906Z,72.88
2016-09-25T01:31:57.648Z,72.55
2016-09-25T01:32:19.384Z,71.93
2016-09-25T01:32:45.886Z,71.53
2016-09-25T01:33:08.689Z,71.50
2016-09-25T01:33:30.423Z,71.64
2016-09-25T01:33:52.148Z,70.76
2016-09-25T01:34:13.887Z,70.92
2016-09-25T01:34:35.617Z,70.73
2016-09-25T01:34:57.345Z,70.53
2016-09-25T01:35:19.096Z,70.30
2016-09-25T01:35:40.820Z,70.40
2016-09-25T01:36:02.552Z,70.55
2016-09-25T01:36:25.269Z,70.98
2016-09-25T01:36:49.838Z,71.55
2016-09-25T01:37:11.611Z,71.83
2016-09-25T01:37:33.332Z,72.32
2016-09-25T01:37:55.060Z,72.19
2016-09-25T01:38:16.779Z,72.15
2016-09-25T01:38:39.493Z,72.04
2016-09-25T01:39:01.220Z,71.55
2016-09-25T01:39:22.948Z,71.53
2016-09-25T01:39:44.708Z,71.06
2016-09-25T01:40:11.209Z,70.82
2016-09-25T01:40:32.945Z,70.40
2016-09-25T01:40:54.679Z,70.16
2016-09-25T01:41:16.404Z,70.30
2016-09-25T01:41:40.670Z,70.64
2016-09-25T01:42:02.405Z,70.87
2016-09-25T01:42:24.142Z,71.08
2016-09-25T01:42:45.860Z,71.34
2016-09-25T01:43:07.586Z,71.57
2016-09-25T01:43:29.313Z,71.73
2016-09-25T01:43:51.048Z,71.58
2016-09-25T01:44:12.781Z,71.89
2016-09-25T01:44:34.514Z,71.90
2016-09-25T01:44:56.288Z,71.42
2016-09-25T01:45:17.963Z,70.98
2016-09-25T01:45:39.681Z,70.81
2016-09-25T01:46:01.406Z,71.44
2016-09-25T01:46:23.163Z,71.61
2016-09-25T01:46:44.897Z,71.67
2016-09-25T01:47:06.629Z,72.02
2016-09-25T01:47:28.337Z,71.86
2016-09-25T01:47:50.067Z,71.69
2016-09-25T01:48:11.819Z,71.69
2016-09-25T01:48:33.585Z,71.77
2016-09-25T01:48:55.312Z,71.50
2016-09-25T01:49:17.032Z,71.15
2016-09-25T01:49:38.752Z,71.00
2016-09-25T01:50:00.555Z,70.69
2016-09-25T01:50:22.292Z,70.66
2016-09-25T01:50:44.004Z,70.90
2016-09-25T01:51:08.644Z,71.26
2016-09-25T01:51:30.373Z,70.89
2016-09-25T01:51:52.103Z,70.55
2016-09-25T01:52:13.838Z,70.52
2016-09-25T01:52:35.591Z,70.73
2016-09-25T01:52:57.300Z,71.01
2016-09-25T01:53:19.041Z,71.35
2016-09-25T01:53:40.756Z,71.30
2016-09-25T01:54:02.500Z,71.35
2016-09-25T01:54:24.225Z,71.10
2016-09-25T01:54:45.975Z,70.91
2016-09-25T01:55:07.713Z,70.81
2016-09-25T01:55:29.444Z,70.65
2016-09-25T01:55:55.994Z,70.50
2016-09-25T01:56:17.722Z,70.66
2016-09-25T01:56:39.486Z,70.65
2016-09-25T01:57:01.197Z,70.43
2016-09-25T01:57:27.702Z,70.29
2016-09-25T01:57:49.425Z,70.16
2016-09-25T01:58:11.178Z,70.01
2016-09-25T01:58:32.897Z,70.54
2016-09-25T01:58:54.634Z,71.11
2016-09-25T01:59:16.356Z,71.57
2016-09-25T01:59:38.071Z,72.30
2016-09-25T01:59:59.803Z,72.77
2016-09-25T02:00:21.591Z,73.33
2016-09-25T02:00:43.304Z,73.62
2016-09-25T02:01:05.038Z,73.24
2016-09-25T02:01:26.781Z,73.05
2016-09-25T02:01:48.538Z,72.88
2016-09-25T02:02:10.266Z,73.31
2016-09-25T02:02:36.836Z,73.76
2016-09-25T02:02:58.564Z,73.58
2016-09-25T02:03:20.343Z,73.03
2016-09-25T02:03:42.086Z,72.68
2016-09-25T02:04:03.827Z,72.53
2016-09-25T02:04:25.595Z,72.67
2016-09-25T02:04:47.370Z,72.74
2016-09-25T02:05:09.124Z,73.34
2016-09-25T02:05:30.900Z,73.67
2016-09-25T02:05:52.634Z,73.73
2016-09-25T02:06:14.366Z,73.69
2016-09-25T02:06:36.087Z,73.91
2016-09-25T02:06:57.819Z,73.86
2016-09-25T02:07:19.572Z,73.89
2016-09-25T02:07:41.383Z,73.68
2016-09-25T02:08:03.140Z,73.94
2016-09-25T02:08:24.951Z,73.79
2016-09-25T02:08:46.762Z,73.71
2016-09-25T02:09:08.486Z,73.51
2016-09-25T02:09:30.224Z,73.16
2016-09-25T02:09:51.966Z,73.42
2016-09-25T02:10:14.724Z,73.03
2016-09-25T02:10:36.468Z,73.73
2016-09-25T02:10:58.209Z,74.17
2016-09-25T02:11:19.924Z,74.64
2016-09-25T02:11:41.655Z,74.88
2016-09-25T02:12:03.393Z,74.51
2016-09-25T02:12:25.136Z,74.04
2016-09-25T02:12:46.870Z,73.46
2016-09-25T02:13:08.593Z,73.47
2016-09-25T02:13:30.327Z,73.79
2016-09-25T02:13:52.084Z,73.65
2016-09-25T02:14:13.879Z,73.65
2016-09-25T02:14:35.603Z,73.78
2016-09-25T02:14:57.359Z,74.12
2016-09-25T02:15:19.070Z,74.18
2016-09-25T02:15:40.798Z,73.45
2016-09-25T02:16:02.535Z,72.59
2016-09-25T02:16:24.265Z,72.58
2016-09-25T02:16:46.042Z,72.72
2016-09-25T02:17:07.812Z,72.60
2016-09-25T02:17:29.543Z,72.38
2016-09-25T02:17:51.267Z,72.47
2016-09-25T02:18:12.989Z,72.17
2016-09-25T02:18:39.485Z,72.45
2016-09-25T02:19:01.222Z,73.51
2016-09-25T02:19:22.963Z,74.52
2016-09-25T02:19:44.793Z,74.44
2016-09-25T02:20:06.522Z,74.12
2016-09-25T02:20:28.257Z,73.71
2016-09-25T02:20:50.042Z,73.45
2016-09-25T02:21:11.770Z,73.77
2016-09-25T02:21:33.495Z,74.16
2016-09-25T02:21:55.226Z,74.58
2016-09-25T02:22:16.964Z,74.97
2016-09-25T02:22:38.695Z,75.12
2016-09-25T02:23:00.423Z,75.16
2016-09-25T02:23:22.202Z,75.11
2016-09-25T02:23:44.004Z,74.92
2016-09-25T02:24:05.748Z,74.88
2016-09-25T02:24:27.482Z,74.33
2016-09-25T02:24:49.222Z,74.21
2016-09-25T02:25:10.947Z,73.89
2016-09-25T02:25:32.743Z,73.42
2016-09-25T02:25:57.348Z,73.61
2016-09-25T02:26:19.098Z,74.22
2016-09-25T02:26:40.868Z,74.23
2016-09-25T02:27:02.609Z,74.09
2016-09-25T02:27:24.375Z,74.34
2016-09-25T02:27:46.129Z,74.50
2016-09-25T02:28:07.846Z,74.78
2016-09-25T02:28:29.581Z,75.12
2016-09-25T02:28:51.357Z,75.07
2016-09-25T02:29:13.085Z,74.97
2016-09-25T02:29:34.833Z,74.28
2016-09-25T02:29:56.602Z,73.69
2016-09-25T02:30:18.384Z,73.75
2016-09-25T02:30:40.122Z,74.18
2016-09-25T02:31:01.911Z,74.73
2016-09-25T02:31:23.673Z,74.49
2016-09-25T02:31:45.401Z,74.39
2016-09-25T02:32:08.125Z,74.27
2016-09-25T02:32:29.882Z,74.13
2016-09-25T02:32:51.629Z,74.18
2016-09-25T02:33:13.354Z,74.52
2016-09-25T02:33:35.073Z,74.90
2016-09-25T02:33:56.832Z,74.76
2016-09-25T02:34:18.570Z,74.51
2016-09-25T02:34:40.308Z,73.91
2016-09-25T02:35:02.253Z,73.41
2016-09-25T02:35:23.988Z,72.92
2016-09-25T02:35:45.729Z,72.71
2016-09-25T02:36:07.491Z,72.60
2016-09-25T02:36:29.235Z,72.61
2016-09-25T02:36:51.002Z,72.73
2016-09-25T02:37:12.785Z,72.99
2016-09-25T02:37:34.503Z,73.50
2016-09-25T02:37:56.217Z,73.74
2016-09-25T02:38:17.984Z,73.73
2016-09-25T02:38:39.718Z,73.85
2016-09-25T02:39:01.456Z,73.84
2016-09-25T02:39:23.185Z,73.59
2016-09-25T02:39:44.948Z,73.54
2016-09-25T02:40:06.692Z,73.47
2016-09-25T02:40:28.416Z,73.10
2016-09-25T02:40:50.154Z,73.11
2016-09-25T02:41:11.882Z,73.22
2016-09-25T02:41:34.611Z,73.55
2016-09-25T02:41:57.347Z,73.97
2016-09-25T02:42:19.072Z,74.16
2016-09-25T02:42:40.816Z,74.46
2016-09-25T02:43:02.634Z,75.07
2016-09-25T02:43:24.378Z,75.13
2016-09-25T02:43:46.108Z,75.27
2016-09-25T02:44:07.850Z,75.63
2016-09-25T02:44:29.587Z,75.75
2016-09-25T02:44:51.309Z,75.74
2016-09-25T02:45:13.041Z,75.33
2016-09-25T02:45:34.788Z,74.76
2016-09-25T02:45:56.548Z,74.31
2016-09-25T02:46:18.302Z,74.41
2016-09-25T02:46:40.026Z,74.38
2016-09-25T02:47:01.779Z,74.64
2016-09-25T02:47:23.526Z,74.90
2016-09-25T02:47:45.276Z,75.16
2016-09-25T02:48:07.040Z,74.97
2016-09-25T02:48:28.775Z,74.52
2016-09-25T02:48:50.500Z,74.16
2016-09-25T02:49:12.228Z,73.96
2016-09-25T02:49:33.994Z,74.49
2016-09-25T02:49:55.727Z,74.88
2016-09-25T02:50:17.449Z,74.95
2016-09-25T02:50:39.187Z,74.95
2016-09-25T02:51:00.947Z,75.58
2016-09-25T02:51:22.685Z,76.01
2016-09-25T02:51:44.410Z,76.20
2016-09-25T02:52:06.145Z,76.16
2016-09-25T02:52:27.907Z,76.05
2016-09-25T02:52:49.671Z,76.21
2016-09-25T02:53:11.414Z,76.38
2016-09-25T02:53:33.146Z,76.46
2016-09-25T02:53:54.884Z,76.54
2016-09-25T02:54:16.650Z,76.63
2016-09-25T02:54:43.143Z,76.63
2016-09-25T02:55:04.867Z,76.86
2016-09-25T02:55:26.583Z,76.73
2016-09-25T02:55:48.320Z,76.99
2016-09-25T02:56:10.035Z,77.19
2016-09-25T02:56:31.779Z,77.48
2016-09-25T02:56:53.517Z,77.25
2016-09-25T02:57:15.236Z,76.59
2016-09-25T02:57:36.954Z,76.33
2016-09-25T02:57:58.685Z,76.25
2016-09-25T02:58:20.432Z,75.84
2016-09-25T02:58:42.163Z,75.51
2016-09-25T02:59:03.904Z,75.68
2016-09-25T02:59:25.651Z,75.84
2016-09-25T02:59:47.398Z,76.21
2016-09-25T03:00:09.117Z,76.53
2016-09-25T03:00:30.861Z,76.59
2016-09-25T03:00:52.586Z,76.79
2016-09-25T03:01:14.338Z,76.97
2016-09-25T03:01:36.070Z,76.96
2016-09-25T03:01:57.805Z,76.75
2016-09-25T03:02:19.565Z,76.71
2016-09-25T03:02:41.277Z,76.71
2016-09-25T03:03:03.010Z,77.07
2016-09-25T03:03:24.755Z,77.69
2016-09-25T03:03:46.486Z,78.03
2016-09-25T03:04:08.249Z,77.98
2016-09-25T03:04:29.991Z,77.59
2016-09-25T03:04:51.721Z,77.27
2016-09-25T03:05:13.508Z,77.01
2016-09-25T03:05:35.254Z,77.00
2016-09-25T03:05:56.972Z,76.79
2016-09-25T03:06:18.775Z,76.37
2016-09-25T03:06:40.637Z,76.05
2016-09-25T03:07:02.333Z,76.00
2016-09-25T03:07:24.093Z,75.47
2016-09-25T03:07:45.836Z,75.16
2016-09-25T03:08:07.555Z,75.13
2016-09-25T03:08:29.299Z,75.19
2016-09-25T03:08:52.023Z,75.93
2016-09-25T03:09:13.750Z,75.84
2016-09-25T03:09:35.481Z,75.38
2016-09-25T03:09:57.226Z,75.41
2016-09-25T03:10:18.934Z,75.65
2016-09-25T03:10:40.666Z,75.76
2016-09-25T03:11:05.322Z,75.99
2016-09-25T03:11:27.069Z,76.49
2016-09-25T03:11:48.806Z,76.58
2016-09-25T03:12:11.533Z,76.56
2016-09-25T03:12:33.353Z,76.26
2016-09-25T03:12:56.077Z,76.63
2016-09-25T03:13:17.888Z,76.81
2016-09-25T03:13:39.628Z,76.64
2016-09-25T03:14:01.347Z,76.57
2016-09-25T03:14:23.107Z,76.44
2016-09-25T03:14:44.858Z,76.74
2016-09-25T03:15:06.604Z,76.97
2016-09-25T03:15:28.336Z,77.23
2016-09-25T03:15:50.096Z,77.03
2016-09-25T03:16:11.869Z,76.31
2016-09-25T03:16:33.607Z,76.36
2016-09-25T03:16:55.341Z,76.15
2016-09-25T03:17:17.072Z,75.90
2016-09-25T03:17:38.797Z,75.67
2016-09-25T03:18:00.522Z,75.57
2016-09-25T03:18:22.250Z,75.37
2016-09-25T03:18:43.996Z,75.97
2016-09-25T03:19:05.750Z,76.74
2016-09-25T03:19:27.479Z,77.05
2016-09-25T03:19:49.216Z,77.23
2016-09-25T03:20:10.940Z,77.18
2016-09-25T03:20:32.672Z,77.38
2016-09-25T03:20:54.391Z,77.75
2016-09-25T03:21:16.122Z,78.55
2016-09-25T03:21:37.862Z,78.93
2016-09-25T03:21:59.593Z,79.37
2016-09-25T03:22:21.318Z,79.81
2016-09-25T03:22:43.036Z,79.41
2016-09-25T03:23:04.897Z,78.47
2016-09-25T03:23:26.614Z,78.00
2016-09-25T03:23:48.371Z,78.37
2016-09-25T03:24:10.087Z,78.51
2016-09-25T03:24:31.827Z,78.63
2016-09-25T03:24:53.542Z,78.52
2016-09-25T03:25:15.265Z,78.21
2016-09-25T03:25:37.024Z,77.88
2016-09-25T03:25:58.748Z,77.44
2016-09-25T03:26:20.477Z,77.21
2016-09-25T03:26:42.246Z,77.11
2016-09-25T03:27:04.000Z,76.89
2016-09-25T03:27:25.772Z,76.66
2016-09-25T03:27:47.466Z,76.74
2016-09-25T03:28:09.197Z,76.89
2016-09-25T03:28:30.915Z,77.26
2016-09-25T03:28:52.649Z,77.33
2016-09-25T03:29:14.391Z,77.11
2016-09-25T03:29:36.105Z,77.11
2016-09-25T03:29:57.827Z,77.19
2016-09-25T03:30:19.555Z,77.13
2016-09-25T03:30:41.277Z,77.27
2016-09-25T03:31:03.004Z,77.05
2016-09-25T03:31:24.774Z,76.87
2016-09-25T03:31:46.540Z,76.62
2016-09-25T03:32:08.256Z,76.11
2016-09-25T03:32:30.000Z,76.03
2016-09-25T03:32:51.724Z,75.65
2016-09-25T03:33:13.504Z,75.37
2016-09-25T03:33:35.222Z,75.13
2016-09-25T03:33:56.954Z,75.39
2016-09-25T03:34:18.666Z,74.95
2016-09-25T03:34:40.390Z,74.62
2016-09-25T03:35:02.302Z,75.34
2016-09-25T03:35:24.035Z,76.01
2016-09-25T03:35:45.761Z,76.19
2016-09-25T03:36:07.488Z,76.36
2016-09-25T03:36:29.252Z,76.77
2016-09-25T03:37:17.486Z,77.18
2016-09-25T03:37:39.238Z,76.72
2016-09-25T03:38:05.773Z,76.20
2016-09-25T03:38:27.517Z,76.64
2016-09-25T03:38:49.251Z,77.24
2016-09-25T03:39:10.973Z,77.71
2016-09-25T03:39:32.736Z,77.71
2016-09-25T03:39:54.480Z,77.61
2016-09-25T03:40:16.246Z,77.64
2016-09-25T03:40:37.997Z,77.86
2016-09-25T03:40:59.773Z,78.18
2016-09-25T03:41:21.517Z,78.09
2016-09-25T03:41:43.248Z,77.41
2016-09-25T03:42:04.975Z,77.37
2016-09-25T03:42:26.724Z,77.60
2016-09-25T03:42:48.454Z,77.32
2016-09-25T03:43:10.186Z,77.35
2016-09-25T03:43:31.907Z,76.78
2016-09-25T03:43:53.644Z,77.09
2016-09-25T03:44:15.382Z,77.03
2016-09-25T03:45:03.606Z,76.80
2016-09-25T03:45:25.352Z,76.53
2016-09-25T03:45:47.279Z,76.08
2016-09-25T03:46:09.051Z,76.25
2016-09-25T03:46:30.905Z,76.40
2016-09-25T03:47:19.177Z,76.78
2016-09-25T03:47:40.960Z,76.85
2016-09-25T03:48:02.694Z,77.21
2016-09-25T03:48:24.419Z,77.49
2016-09-25T03:48:46.146Z,77.44
2016-09-25T03:49:08.867Z,77.67
2016-09-25T03:49:30.611Z,77.48
2016-09-25T03:49:52.322Z,77.09
2016-09-25T03:50:14.051Z,77.00
2016-09-25T03:50:35.775Z,76.31
2016-09-25T03:50:57.545Z,75.84
2016-09-25T03:51:19.266Z,76.02
2016-09-25T03:51:40.998Z,76.33
2016-09-25T03:52:02.716Z,76.44
2016-09-25T03:52:24.440Z,76.22
2016-09-25T03:52:46.217Z,76.17
2016-09-25T03:53:07.939Z,76.50
2016-09-25T03:53:29.657Z,76.64
2016-09-25T03:53:51.371Z,76.54
2016-09-25T03:54:13.084Z,76.66
2016-09-25T03:54:34.805Z,76.92
2016-09-25T03:55:01.330Z,77.11
2016-09-25T03:55:23.057Z,77.25
2016-09-25T03:55:44.799Z,77.29
2016-09-25T03:56:06.521Z,77.77
2016-09-25T03:56:28.284Z,78.04
2016-09-25T03:56:50.009Z,77.75
2016-09-25T03:57:11.727Z,77.56
2016-09-25T03:57:33.455Z,76.90
2016-09-25T03:58:01.944Z,76.80
2016-09-25T03:58:28.441Z,76.57
2016-09-25T03:58:50.172Z,76.21
2016-09-25T03:59:11.909Z,76.15
2016-09-25T03:59:33.621Z,75.99
2016-09-25T03:59:55.349Z,75.93
2016-09-25T04:00:17.074Z,75.89
2016-09-25T04:00:38.808Z,76.01
2016-09-25T04:01:00.558Z,75.92
2016-09-25T04:01:22.323Z,75.81
2016-09-25T04:01:44.043Z,76.61
2016-09-25T04:02:05.765Z,77.33
2016-09-25T04:02:27.506Z,77.94
2016-09-25T04:02:49.244Z,78.49
2016-09-25T04:03:10.962Z,78.81
2016-09-25T04:03:32.719Z,78.75
2016-09-25T04:03:54.443Z,78.53
2016-09-25T04:04:16.218Z,78.54
2016-09-25T04:04:37.940Z,78.99
2016-09-25T04:04:59.682Z,79.44
2016-09-25T04:05:21.416Z,79.83
2016-09-25T04:05:43.138Z,80.20
2016-09-25T04:06:04.862Z,80.42
2016-09-25T04:06:26.645Z,80.29
2016-09-25T04:06:48.421Z,79.95
2016-09-25T04:07:10.155Z,79.51
2016-09-25T04:07:31.912Z,78.88
2016-09-25T04:07:53.636Z,79.19
2016-09-25T04:08:15.362Z,79.68
2016-09-25T04:08:37.074Z,79.80
2016-09-25T04:08:58.815Z,79.81
2016-09-25T04:09:20.542Z,79.39
2016-09-25T04:09:42.286Z,78.50
2016-09-25T04:10:04.012Z,78.15
2016-09-25T04:10:25.752Z,77.69
2016-09-25T04:10:47.503Z,77.87
2016-09-25T04:11:10.229Z,78.36
2016-09-25T04:11:31.969Z,78.79
2016-09-25T04:11:53.713Z,78.97
2016-09-25T04:12:15.470Z,79.11
2016-09-25T04:12:37.214Z,79.00
2016-09-25T04:12:58.942Z,78.96
2016-09-25T04:13:25.461Z,78.66
2016-09-25T04:13:47.192Z,78.40
2016-09-25T04:14:19.266Z,78.18
2016-09-25T04:14:40.993Z,78.02
2016-09-25T04:15:02.714Z,78.10
2016-09-25T04:15:24.421Z,78.05
2016-09-25T04:15:46.142Z,78.22
2016-09-25T04:16:07.868Z,78.32
2016-09-25T04:16:29.598Z,78.46
2016-09-25T04:16:51.348Z,78.10
2016-09-25T04:17:13.105Z,77.37
2016-09-25T04:17:34.847Z,76.97
2016-09-25T04:17:56.577Z,76.46
2016-09-25T04:18:18.332Z,76.85
2016-09-25T04:18:40.059Z,77.30
2016-09-25T04:19:01.788Z,77.48
2016-09-25T04:19:23.511Z,77.72
2016-09-25T04:19:45.236Z,77.82
2016-09-25T04:20:06.958Z,77.88
2016-09-25T04:20:28.686Z,77.92
2016-09-25T04:20:50.452Z,78.02
2016-09-25T04:21:12.171Z,78.46
2016-09-25T04:21:33.905Z,78.76
2016-09-25T04:21:56.627Z,78.69
2016-09-25T04:22:18.362Z,77.76
2016-09-25T04:22:40.107Z,77.97
2016-09-25T04:23:01.863Z,78.47
2016-09-25T04:23:23.607Z,79.13
2016-09-25T04:23:45.339Z,79.44
2016-09-25T04:24:07.067Z,79.81
2016-09-25T04:24:28.799Z,79.98
2016-09-25T04:24:50.539Z,79.96
2016-09-25T04:25:12.291Z,79.79
2016-09-25T04:25:34.015Z,79.40
2016-09-25T04:25:55.759Z,79.32
2016-09-25T04:26:17.491Z,79.28
2016-09-25T04:26:39.227Z,79.44
2016-09-25T04:27:00.977Z,79.35
2016-09-25T04:27:22.710Z,79.47
2016-09-25T04:27:44.431Z,79.08
2016-09-25T04:28:06.143Z,78.41
2016-09-25T04:28:27.864Z,78.03
2016-09-25T04:28:49.586Z,77.80
2016-09-25T04:29:11.321Z,77.26
2016-09-25T04:29:34.051Z,77.40
2016-09-25T04:29:55.787Z,77.75
2016-09-25T04:30:17.516Z,77.83
2016-09-25T04:30:39.254Z,78.18
2016-09-25T04:31:00.978Z,78.49
2016-09-25T04:31:22.693Z,78.71
2016-09-25T04:31:44.469Z,78.71
2016-09-25T04:32:06.242Z,78.69
2016-09-25T04:32:27.986Z,78.52
2016-09-25T04:32:54.479Z,78.38
2016-09-25T04:33:16.204Z,78.58
2016-09-25T04:33:37.964Z,78.68
2016-09-25T04:33:59.724Z,78.57
2016-09-25T04:34:48.009Z,78.43
2016-09-25T04:35:09.766Z,79.01
2016-09-25T04:35:36.249Z,79.12
2016-09-25T04:36:02.744Z,78.88
2016-09-25T04:36:24.476Z,79.13
2016-09-25T04:36:46.210Z,79.28
2016-09-25T04:37:07.925Z,79.47
2016-09-25T04:37:29.660Z,79.36
2016-09-25T04:37:53.916Z,79.11
2016-09-25T04:38:15.634Z,79.39
2016-09-25T04:38:37.363Z,79.15
2016-09-25T04:39:00.073Z,79.11
2016-09-25T04:39:21.820Z,79.02
2016-09-25T04:39:43.541Z,79.04
2016-09-25T04:40:05.404Z,78.78
2016-09-25T04:40:27.151Z,78.79
2016-09-25T04:40:48.898Z,78.62
2016-09-25T04:41:10.661Z,78.73
2016-09-25T04:41:32.387Z,78.90
2016-09-25T04:41:54.099Z,78.76
2016-09-25T04:42:15.833Z,78.97
2016-09-25T04:42:37.600Z,79.05
2016-09-25T04:42:59.327Z,79.01
2016-09-25T04:43:21.097Z,79.06
2016-09-25T04:43:42.819Z,79.11
2016-09-25T04:44:31.058Z,79.44
2016-09-25T04:44:52.784Z,79.76
2016-09-25T04:45:14.524Z,80.17
2016-09-25T04:45:36.316Z,80.48
2016-09-25T04:45:58.058Z,80.91
2016-09-25T04:46:19.784Z,80.92
2016-09-25T04:46:41.524Z,81.03
2016-09-25T04:47:03.229Z,81.12